FW1474 Weather Reports


time (UTC)temp
C
wind
direction
speed
KPH
gust
KPH
rain 1hr
cm
rain 24hr
cm
rain mn
cm
humidity
%
barometer
mb
20200229064816 11 135 1.6 3.2 0.00 0.00 0.00 65 1015.0
20200229063816 10 135 3.2 3.2 0.00 0.00 0.00 65 1014.8
20200229062817 10 135 3.2 4.8 0.00 0.00 0.00 68 1015.0
20200229061816 10 135 4.8 6.4 0.00 0.00 0.00 65 1015.1
20200229060816 10 67 1.6 3.2 0.00 0.00 0.00 60 1015.0
20200229055817 10 67 4.8 4.8 0.00 0.00 0.00 58 1014.9
20200229054816 10 67 4.8 6.4 0.00 0.00 0.00 56 1015.0
20200229053816 11 112 3.2 4.8 0.00 0.00 0.00 57 1015.1
20200229052816 11 112 1.6 3.2 0.00 0.00 0.00 60 1015.1
20200229051816 11 90 4.8 4.8 0.00 0.00 0.00 57 1014.9
20200229050815 11 67 1.6 1.6 0.00 0.00 0.00 57 1014.8
20200229045816 12 67 1.6 3.2 0.00 0.00 0.00 57 1014.7
20200229044817 12 67 3.2 3.2 0.00 0.00 0.00 57 1014.7
20200229043816 12 67 1.6 3.2 0.00 0.00 0.00 60 1014.5
20200229042816 13 67 1.6 3.2 0.00 0.00 0.00 55 1014.6
20200229041816 13 67 3.2 4.8 0.00 0.00 0.00 54 1014.7
20200229040816 14 67 3.2 4.8 0.00 0.00 0.00 52 1014.9
20200229035816 15 67 3.2 4.8 0.00 0.00 0.00 53 1014.7
20200229034816 15 0.0 1.6 0.00 0.00 0.00 49 1014.8
20200229033816 16 67 3.2 4.8 0.00 0.00 0.00 51 1014.7
20200229032817 16 292 3.2 4.8 0.00 0.00 0.00 52 1014.7
20200229031816 17 0.0 1.6 0.00 0.00 0.00 49 1014.7
20200229030816 17 0.0 0.0 0.00 0.00 0.00 48 1014.6
20200229025815 18 270 1.6 1.6 0.00 0.00 0.00 46 1014.5
20200229024816 19 270 1.6 3.2 0.00 0.00 0.00 47 1014.3
20200229023816 19 270 3.2 3.2 0.00 0.00 0.00 46 1014.2
20200229022816 20 270 1.6 3.2 0.00 0.00 0.00 44 1014.2
20200229021815 21 270 3.2 3.2 0.00 0.00 0.00 44 1013.9
20200229020816 21 270 3.2 4.8 0.00 0.00 0.00 45 1013.8
20200229015816 21 157 8.0 9.7 0.00 0.00 0.00 45 1013.7
20200229014815 22 180 4.8 8.0 0.00 0.00 0.00 44 1013.9
20200229013815 22 180 4.8 6.4 0.00 0.00 0.00 41 1013.8
20200229012816 22 180 4.8 6.4 0.00 0.00 0.00 40 1013.8
20200229011816 23 180 6.4 8.0 0.00 0.00 0.00 39 1013.8
20200229010815 23 180 6.4 8.0 0.00 0.00 0.00 39 1013.9
20200229005816 23 202 4.8 6.4 0.00 0.00 0.00 31 1013.6
20200229004815 23 225 4.8 6.4 0.00 0.00 0.00 32 1014.0
20200229003817 24 225 6.4 6.4 0.00 0.00 0.00 31 1014.0
20200229002818 25 202 4.8 6.4 0.00 0.00 0.00 30 1013.6
20200229001818 25 225 4.8 4.8 0.00 0.00 0.00 31 1013.8
20200229000817 25 247 6.4 11.3 0.00 0.00 0.00 30 1014.1
20200228235817 26 270 9.7 12.9 0.00 0.00 0.00 28 1014.2
20200228234818 25 247 9.7 12.9 0.00 0.00 0.00 28 1014.2
20200228233817 25 247 11.3 14.5 0.00 0.00 0.00 28 1014.1
20200228232817 26 225 9.7 14.5 0.00 0.00 0.00 26 1014.0
20200228231817 26 247 12.9 14.5 0.00 0.00 0.00 27 1014.1
20200228230817 26 247 14.5 16.1 0.00 0.00 0.00 29 1014.1
20200228225817 26 247 16.1 17.7 0.00 0.00 0.00 28 1014.1
20200228224817 26 247 12.9 16.1 0.00 0.00 0.00 33 1014.0
20200228223817 26 225 16.1 19.3 0.00 0.00 0.00 31 1013.9
20200228222817 26 225 14.5 16.1 0.00 0.00 0.00 31 1013.9
20200228221817 26 225 17.7 19.3 0.00 0.00 0.00 30 1014.1
20200228220817 27 225 20.9 25.7 0.00 0.00 0.00 29 1014.2
20200228215817 27 247 16.1 24.1 0.00 0.00 0.00 29 1014.1
20200228214817 28 225 9.7 12.9 0.00 0.00 0.00 19 1014.1
20200228213817 28 225 9.7 11.3 0.00 0.00 0.00 20 1014.2
20200228212817 28 225 9.7 11.3 0.00 0.00 0.00 20 1014.1
20200228211817 28 225 4.8 8.0 0.00 0.00 0.00 20 1014.3
20200228210818 27 225 9.7 12.9 0.00 0.00 0.00 23 1014.3
20200228205817 28 225 8.0 9.7 0.00 0.00 0.00 21 1014.3
20200228204818 28 225 3.2 4.8 0.00 0.00 0.00 20 1014.3
20200228203817 28 270 9.7 12.9 0.00 0.00 0.00 19 1014.3
20200228202817 28 270 1.6 4.8 0.00 0.00 0.00 22 1014.3
20200228201817 28 0.0 1.6 0.00 0.00 0.00 19 1014.3
20200228200817 28 292 3.2 6.4 0.00 0.00 0.00 21 1014.5
20200228195819 28 225 4.8 6.4 0.00 0.00 0.00 21 1014.8
20200228194817 27 45 3.2 4.8 0.00 0.00 0.00 18 1014.9
20200228193818 27 22 4.8 8.0 0.00 0.00 0.00 19 1015.1
20200228192822 27 67 3.2 6.4 0.00 0.00 0.00 20 1015.2
20200228191817 27 45 6.4 9.7 0.00 0.00 0.00 21 1015.5
20200228190817 26 22 3.2 4.8 0.00 0.00 0.00 22 1015.6
20200228185817 26 67 4.8 6.4 0.00 0.00 0.00 21 1015.9
20200228184816 26 337 4.8 6.4 0.00 0.00 0.00 21 1015.9
20200228183817 26 67 4.8 6.4 0.00 0.00 0.00 21 1016.1
20200228182817 26 45 9.7 12.9 0.00 0.00 0.00 19 1016.1
20200228181816 25 22 3.2 6.4 0.00 0.00 0.00 22 1016.1
20200228180822 24 0 6.4 8.0 0.00 0.00 0.00 24 1016.1
20200228175817 23 337 8.0 9.7 0.00 0.00 0.00 29 1016.1
20200228174817 23 292 3.2 6.4 0.00 0.00 0.00 32 1016.1
20200228173817 22 315 8.0 11.3 0.00 0.00 0.00 33 1016.2
20200228172817 21 0 6.4 9.7 0.00 0.00 0.00 33 1016.1
20200228171817 21 337 4.8 6.4 0.00 0.00 0.00 37 1016.3
20200228170816 20 22 1.6 4.8 0.00 0.00 0.00 42 1016.3
20200228165816 19 0.0 1.6 0.00 0.00 0.00 47 1016.5
20200228164817 18 337 4.8 6.4 0.00 0.00 0.00 47 1016.6
20200228163816 17 337 4.8 6.4 0.00 0.00 0.00 45 1016.5
20200228162816 17 135 1.6 3.2 0.00 0.00 0.00 48 1016.6
20200228161816 16 135 1.6 1.6 0.00 0.00 0.00 50 1016.5
20200228160816 16 45 1.6 1.6 0.00 0.00 0.00 49 1016.2
20200228155816 15 45 3.2 3.2 0.00 0.00 0.00 51 1016.1
20200228154816 15 45 4.8 6.4 0.00 0.00 0.00 54 1015.9
20200228153816 14 45 6.4 6.4 0.00 0.00 0.00 55 1015.7
20200228152817 13 22 3.2 3.2 0.00 0.00 0.00 58 1015.8
20200228151816 12 45 4.8 6.4 0.00 0.00 0.00 59 1015.6
20200228150818 12 22 8.0 8.0 0.00 0.00 0.00 61 1015.5
20200228145816 11 22 8.0 11.3 0.00 0.00 0.00 63 1015.2
20200228144816 10 157 3.2 3.2 0.00 0.00 0.00 65 1015.4
20200228143816 10 157 1.6 3.2 0.00 0.00 0.00 65 1015.4
20200228142817 10 135 4.8 6.4 0.00 0.00 0.00 66 1015.2
20200228141816 9 0 3.2 3.2 0.00 0.00 0.00 67 1015.1
20200228140817 9 0 8.0 8.0 0.00 0.00 0.00 68 1014.8
20200228135816 9 45 4.8 4.8 0.00 0.00 0.00 66 1014.7
20200228134816 9 67 4.8 6.4 0.00 0.00 0.00 66 1014.5
20200228133816 9 45 6.4 8.0 0.00 0.00 0.00 65 1014.2
20200228132816 9 22 9.7 12.9 0.00 0.00 0.00 65 1014.1
20200228131815 9 22 12.9 14.5 0.00 0.00 0.00 65 1014.3
20200228130817 9 22 11.3 14.5 0.00 0.00 0.00 65 1014.3
20200228125816 9 22 8.0 8.0 0.00 0.00 0.00 67 1014.6
20200228124815 9 22 3.2 3.2 0.00 0.00 0.00 67 1014.5
20200228123817 10 22 6.4 6.4 0.00 0.00 0.00 67 1014.6
20200228122816 10 45 1.6 3.2 0.00 0.00 0.00 67 1014.5
20200228121815 10 45 4.8 4.8 0.00 0.00 0.00 65 1014.3
20200228120816 10 22 3.2 4.8 0.00 0.00 0.00 67 1014.2
20200228115816 10 45 4.8 6.4 0.00 0.00 0.00 67 1014.1
20200228114815 10 45 4.8 6.4 0.00 0.00 0.00 68 1013.9
20200228113817 10 22 4.8 6.4 0.00 0.00 0.00 68 1014.0
20200228112815 10 22 6.4 8.0 0.00 0.00 0.00 72 1014.0
20200228111816 9 45 1.6 3.2 0.00 0.00 0.00 67 1014.1
20200228110815 10 45 3.2 4.8 0.00 0.00 0.00 69 1014.2
20200228105816 10 337 4.8 4.8 0.00 0.00 0.00 69 1014.1
20200228104816 10 0 4.8 6.4 0.00 0.00 0.00 68 1014.1
20200228103815 10 225 3.2 4.8 0.00 0.00 0.00 70 1014.0
20200228102816 10 225 4.8 4.8 0.00 0.00 0.00 70 1013.8
20200228101815 10 225 3.2 3.2 0.00 0.00 0.00 70 1013.7
20200228100816 10 0.0 0.0 0.00 0.00 0.00 69 1013.6
20200228095816 10 0.0 0.0 0.00 0.00 0.00 69 1013.7
20200228094816 10 225 1.6 3.2 0.00 0.00 0.00 67 1013.7
20200228093815 10 225 1.6 3.2 0.00 0.00 0.00 64 1013.7
20200228092815 11 225 3.2 4.8 0.00 0.00 0.00 63 1013.8
20200228091815 11 135 3.2 3.2 0.00 0.00 0.00 66 1013.8
20200228090815 10 0.0 1.6 0.00 0.00 0.00 65 1013.9
20200228085815 10 135 3.2 3.2 0.00 0.00 0.00 61 1014.1
20200228084815 11 135 1.6 1.6 0.00 0.00 0.00 62 1014.0
20200228083815 11 135 1.6 3.2 0.00 0.00 0.00 64 1014.0
20200228082815 11 135 3.2 4.8 0.00 0.00 0.00 64 1014.0
20200228081815 11 0.0 0.0 0.00 0.00 0.00 62 1014.2
20200228080815 11 0.0 1.6 0.00 0.00 0.00 63 1014.3
20200228075815 11 135 3.2 4.8 0.00 0.00 0.00 64 1014.5
20200228074815 11 135 3.2 4.8 0.00 0.00 0.00 65 1014.7
20200228073815 11 157 4.8 6.4 0.00 0.00 0.00 65 1014.8
20200228072815 12 157 4.8 6.4 0.00 0.00 0.00 63 1014.9
20200228071815 12 180 6.4 6.4 0.00 0.00 0.00 62 1014.8
20200228070821 12 45 3.2 4.8 0.00 0.00 0.00 63 1014.6
20200228065816 13 22 1.6 3.2 0.00 0.00 0.00 61 1014.3